sensor_id;sensor_type;location;lat;lon;timestamp;P1;durP1;ratioP1;P2;durP2;ratioP2
73113;SDS011;61301;51.956;5.876;2023-07-02T00:00:31;6.30;;;2.88;;
73113;SDS011;61301;51.956;5.876;2023-07-02T00:02:59;5.65;;;2.78;;
73113;SDS011;61301;51.956;5.876;2023-07-02T00:05:26;4.07;;;2.50;;
73113;SDS011;61301;51.956;5.876;2023-07-02T00:07:52;6.45;;;3.42;;
73113;SDS011;61301;51.956;5.876;2023-07-02T00:10:18;6.70;;;3.65;;
73113;SDS011;61301;51.956;5.876;2023-07-02T00:12:44;8.82;;;4.50;;
73113;SDS011;61301;51.956;5.876;2023-07-02T00:15:10;9.52;;;4.22;;
73113;SDS011;61301;51.956;5.876;2023-07-02T00:17:36;8.40;;;4.07;;
73113;SDS011;61301;51.956;5.876;2023-07-02T00:20:06;8.70;;;4.63;;
73113;SDS011;61301;51.956;5.876;2023-07-02T00:22:39;9.55;;;5.25;;
73113;SDS011;61301;51.956;5.876;2023-07-02T00:25:09;7.75;;;3.85;;
73113;SDS011;61301;51.956;5.876;2023-07-02T00:27:35;8.25;;;4.45;;
73113;SDS011;61301;51.956;5.876;2023-07-02T00:30:03;9.18;;;4.53;;
73113;SDS011;61301;51.956;5.876;2023-07-02T00:32:29;13.00;;;5.93;;
73113;SDS011;61301;51.956;5.876;2023-07-02T00:34:55;9.02;;;4.38;;
73113;SDS011;61301;51.956;5.876;2023-07-02T00:37:21;13.40;;;5.25;;
73113;SDS011;61301;51.956;5.876;2023-07-02T00:39:47;11.05;;;5.13;;
73113;SDS011;61301;51.956;5.876;2023-07-02T00:42:13;10.30;;;5.15;;
73113;SDS011;61301;51.956;5.876;2023-07-02T00:44:39;7.80;;;4.30;;
73113;SDS011;61301;51.956;5.876;2023-07-02T00:47:12;11.55;;;5.72;;
73113;SDS011;61301;51.956;5.876;2023-07-02T00:49:39;11.20;;;5.35;;
73113;SDS011;61301;51.956;5.876;2023-07-02T00:52:06;12.27;;;5.68;;
73113;SDS011;61301;51.956;5.876;2023-07-02T00:54:32;14.57;;;6.15;;
73113;SDS011;61301;51.956;5.876;2023-07-02T00:57:00;11.25;;;5.35;;
73113;SDS011;61301;51.956;5.876;2023-07-02T00:59:29;11.77;;;6.05;;
73113;SDS011;61301;51.956;5.876;2023-07-02T01:01:56;9.63;;;4.15;;
73113;SDS011;61301;51.956;5.876;2023-07-02T01:04:22;10.18;;;4.88;;
73113;SDS011;61301;51.956;5.876;2023-07-02T01:06:53;8.98;;;4.40;;
73113;SDS011;61301;51.956;5.876;2023-07-02T01:09:25;6.47;;;3.58;;
73113;SDS011;61301;51.956;5.876;2023-07-02T01:11:56;6.18;;;3.60;;
73113;SDS011;61301;51.956;5.876;2023-07-02T01:14:31;11.38;;;4.70;;
73113;SDS011;61301;51.956;5.876;2023-07-02T01:16:59;5.00;;;2.92;;
73113;SDS011;61301;51.956;5.876;2023-07-02T01:22:17;9.55;;;4.82;;
73113;SDS011;61301;51.956;5.876;2023-07-02T01:24:44;10.93;;;5.43;;
73113;SDS011;61301;51.956;5.876;2023-07-02T01:27:17;8.48;;;4.00;;
73113;SDS011;61301;51.956;5.876;2023-07-02T01:29:43;5.00;;;3.10;;
73113;SDS011;61301;51.956;5.876;2023-07-02T01:32:13;6.75;;;2.90;;
73113;SDS011;61301;51.956;5.876;2023-07-02T01:34:39;7.65;;;4.03;;
73113;SDS011;61301;51.956;5.876;2023-07-02T01:37:08;8.45;;;4.47;;
73113;SDS011;61301;51.956;5.876;2023-07-02T01:39:35;8.23;;;4.40;;
73113;SDS011;61301;51.956;5.876;2023-07-02T01:44:37;11.10;;;4.88;;
73113;SDS011;61301;51.956;5.876;2023-07-02T01:47:04;6.32;;;3.80;;
73113;SDS011;61301;51.956;5.876;2023-07-02T01:49:30;6.35;;;4.07;;
73113;SDS011;61301;51.956;5.876;2023-07-02T01:51:57;9.93;;;4.25;;
73113;SDS011;61301;51.956;5.876;2023-07-02T01:54:24;8.35;;;4.30;;
73113;SDS011;61301;51.956;5.876;2023-07-02T01:56:55;7.20;;;3.88;;
73113;SDS011;61301;51.956;5.876;2023-07-02T01:59:21;6.72;;;3.88;;
73113;SDS011;61301;51.956;5.876;2023-07-02T02:01:48;7.90;;;3.97;;
73113;SDS011;61301;51.956;5.876;2023-07-02T02:04:14;6.60;;;3.85;;
73113;SDS011;61301;51.956;5.876;2023-07-02T02:06:40;6.35;;;3.53;;
73113;SDS011;61301;51.956;5.876;2023-07-02T02:09:07;5.93;;;2.88;;
73113;SDS011;61301;51.956;5.876;2023-07-02T02:11:39;6.05;;;3.63;;
73113;SDS011;61301;51.956;5.876;2023-07-02T02:14:06;4.45;;;2.70;;
73113;SDS011;61301;51.956;5.876;2023-07-02T02:16:32;3.70;;;2.47;;
73113;SDS011;61301;51.956;5.876;2023-07-02T02:18:59;4.07;;;2.70;;
73113;SDS011;61301;51.956;5.876;2023-07-02T02:21:26;5.47;;;3.58;;
73113;SDS011;61301;51.956;5.876;2023-07-02T02:23:52;3.60;;;2.50;;
73113;SDS011;61301;51.956;5.876;2023-07-02T02:26:18;9.90;;;3.92;;
73113;SDS011;61301;51.956;5.876;2023-07-02T02:28:47;4.88;;;3.08;;
73113;SDS011;61301;51.956;5.876;2023-07-02T02:31:14;4.70;;;2.63;;
73113;SDS011;61301;51.956;5.876;2023-07-02T02:33:41;3.42;;;2.25;;
73113;SDS011;61301;51.956;5.876;2023-07-02T02:36:07;5.10;;;3.08;;
73113;SDS011;61301;51.956;5.876;2023-07-02T02:38:33;3.95;;;2.40;;
73113;SDS011;61301;51.956;5.876;2023-07-02T02:41:01;2.92;;;2.00;;
73113;SDS011;61301;51.956;5.876;2023-07-02T02:43:31;4.47;;;2.60;;
73113;SDS011;61301;51.956;5.876;2023-07-02T02:45:58;4.30;;;2.47;;
73113;SDS011;61301;51.956;5.876;2023-07-02T02:48:26;4.35;;;2.72;;
73113;SDS011;61301;51.956;5.876;2023-07-02T02:50:52;2.60;;;2.03;;
73113;SDS011;61301;51.956;5.876;2023-07-02T02:53:18;3.67;;;2.47;;
73113;SDS011;61301;51.956;5.876;2023-07-02T02:55:44;3.22;;;1.77;;
73113;SDS011;61301;51.956;5.876;2023-07-02T02:58:10;3.92;;;1.92;;
73113;SDS011;61301;51.956;5.876;2023-07-02T03:00:36;1.55;;;1.30;;
73113;SDS011;61301;51.956;5.876;2023-07-02T03:03:03;2.88;;;1.80;;
73113;SDS011;61301;51.956;5.876;2023-07-02T03:05:29;3.30;;;1.90;;
73113;SDS011;61301;51.956;5.876;2023-07-02T03:07:56;4.68;;;2.28;;
73113;SDS011;61301;51.956;5.876;2023-07-02T03:10:22;4.72;;;2.72;;
73113;SDS011;61301;51.956;5.876;2023-07-02T03:12:48;5.28;;;3.00;;
73113;SDS011;61301;51.956;5.876;2023-07-02T03:15:14;3.53;;;2.22;;
73113;SDS011;61301;51.956;5.876;2023-07-02T03:17:40;3.45;;;1.98;;
73113;SDS011;61301;51.956;5.876;2023-07-02T03:20:06;4.60;;;2.92;;
73113;SDS011;61301;51.956;5.876;2023-07-02T03:22:35;5.88;;;2.60;;
73113;SDS011;61301;51.956;5.876;2023-07-02T03:25:01;3.58;;;2.38;;
73113;SDS011;61301;51.956;5.876;2023-07-02T03:27:27;3.47;;;2.25;;
73113;SDS011;61301;51.956;5.876;2023-07-02T03:29:53;3.47;;;2.65;;
73113;SDS011;61301;51.956;5.876;2023-07-02T03:32:19;4.22;;;2.50;;
73113;SDS011;61301;51.956;5.876;2023-07-02T03:34:45;5.22;;;2.78;;
73113;SDS011;61301;51.956;5.876;2023-07-02T03:37:11;3.80;;;2.47;;
73113;SDS011;61301;51.956;5.876;2023-07-02T03:39:37;7.63;;;4.50;;
73113;SDS011;61301;51.956;5.876;2023-07-02T03:42:04;6.35;;;3.55;;
73113;SDS011;61301;51.956;5.876;2023-07-02T03:44:31;5.18;;;3.42;;
73113;SDS011;61301;51.956;5.876;2023-07-02T03:46:57;6.43;;;3.20;;
73113;SDS011;61301;51.956;5.876;2023-07-02T03:49:23;5.18;;;2.90;;
73113;SDS011;61301;51.956;5.876;2023-07-02T03:51:49;8.43;;;4.07;;
73113;SDS011;61301;51.956;5.876;2023-07-02T03:54:15;7.95;;;3.67;;
73113;SDS011;61301;51.956;5.876;2023-07-02T03:56:41;7.55;;;3.20;;
73113;SDS011;61301;51.956;5.876;2023-07-02T03:59:07;6.88;;;3.85;;
73113;SDS011;61301;51.956;5.876;2023-07-02T04:01:33;7.65;;;3.20;;
73113;SDS011;61301;51.956;5.876;2023-07-02T04:03:58;7.32;;;3.97;;
73113;SDS011;61301;51.956;5.876;2023-07-02T04:06:24;5.32;;;2.95;;
73113;SDS011;61301;51.956;5.876;2023-07-02T04:08:50;3.90;;;2.70;;
73113;SDS011;61301;51.956;5.876;2023-07-02T04:11:16;7.57;;;3.75;;
73113;SDS011;61301;51.956;5.876;2023-07-02T04:13:42;9.85;;;4.55;;
73113;SDS011;61301;51.956;5.876;2023-07-02T04:16:08;5.93;;;3.50;;
73113;SDS011;61301;51.956;5.876;2023-07-02T04:18:34;10.40;;;5.32;;
73113;SDS011;61301;51.956;5.876;2023-07-02T04:21:01;10.75;;;5.22;;
73113;SDS011;61301;51.956;5.876;2023-07-02T04:23:28;7.97;;;3.40;;
73113;SDS011;61301;51.956;5.876;2023-07-02T04:25:53;7.90;;;4.43;;
73113;SDS011;61301;51.956;5.876;2023-07-02T04:28:19;8.75;;;4.45;;
73113;SDS011;61301;51.956;5.876;2023-07-02T04:30:45;6.70;;;3.50;;
73113;SDS011;61301;51.956;5.876;2023-07-02T04:33:15;7.50;;;4.10;;
73113;SDS011;61301;51.956;5.876;2023-07-02T04:35:41;7.93;;;3.70;;
73113;SDS011;61301;51.956;5.876;2023-07-02T04:38:07;5.97;;;4.03;;
73113;SDS011;61301;51.956;5.876;2023-07-02T04:40:33;8.35;;;4.10;;
73113;SDS011;61301;51.956;5.876;2023-07-02T04:42:59;7.20;;;4.30;;
73113;SDS011;61301;51.956;5.876;2023-07-02T04:45:26;8.32;;;3.70;;
73113;SDS011;61301;51.956;5.876;2023-07-02T04:47:57;6.05;;;3.60;;
73113;SDS011;61301;51.956;5.876;2023-07-02T04:50:25;10.70;;;4.70;;
73113;SDS011;61301;51.956;5.876;2023-07-02T04:52:51;14.10;;;6.00;;
73113;SDS011;61301;51.956;5.876;2023-07-02T04:55:17;11.07;;;5.43;;
73113;SDS011;61301;51.956;5.876;2023-07-02T04:57:43;11.93;;;4.50;;
73113;SDS011;61301;51.956;5.876;2023-07-02T05:00:10;11.70;;;4.72;;
73113;SDS011;61301;51.956;5.876;2023-07-02T05:02:36;8.85;;;5.05;;
73113;SDS011;61301;51.956;5.876;2023-07-02T05:05:02;8.27;;;4.13;;
73113;SDS011;61301;51.956;5.876;2023-07-02T05:07:28;9.38;;;4.47;;
73113;SDS011;61301;51.956;5.876;2023-07-02T05:09:54;7.00;;;3.75;;
73113;SDS011;61301;51.956;5.876;2023-07-02T05:12:20;6.88;;;3.75;;
73113;SDS011;61301;51.956;5.876;2023-07-02T05:14:46;9.68;;;4.32;;
73113;SDS011;61301;51.956;5.876;2023-07-02T05:17:12;10.15;;;5.20;;
73113;SDS011;61301;51.956;5.876;2023-07-02T05:19:41;10.40;;;4.80;;
73113;SDS011;61301;51.956;5.876;2023-07-02T05:22:08;12.68;;;6.05;;
73113;SDS011;61301;51.956;5.876;2023-07-02T05:24:34;11.93;;;5.75;;
73113;SDS011;61301;51.956;5.876;2023-07-02T05:27:04;13.52;;;6.35;;
73113;SDS011;61301;51.956;5.876;2023-07-02T05:29:30;19.40;;;6.97;;
73113;SDS011;61301;51.956;5.876;2023-07-02T05:31:56;15.32;;;6.28;;
73113;SDS011;61301;51.956;5.876;2023-07-02T05:34:22;11.18;;;4.65;;
73113;SDS011;61301;51.956;5.876;2023-07-02T05:36:48;18.25;;;6.50;;
73113;SDS011;61301;51.956;5.876;2023-07-02T05:39:14;15.88;;;6.50;;
73113;SDS011;61301;51.956;5.876;2023-07-02T05:41:40;21.90;;;7.18;;
73113;SDS011;61301;51.956;5.876;2023-07-02T05:44:06;13.30;;;6.35;;
73113;SDS011;61301;51.956;5.876;2023-07-02T05:46:32;16.73;;;7.75;;
73113;SDS011;61301;51.956;5.876;2023-07-02T05:48:58;15.23;;;7.82;;
73113;SDS011;61301;51.956;5.876;2023-07-02T05:51:25;15.98;;;6.55;;
73113;SDS011;61301;51.956;5.876;2023-07-02T05:53:51;15.82;;;7.20;;
73113;SDS011;61301;51.956;5.876;2023-07-02T05:56:17;11.27;;;6.25;;
73113;SDS011;61301;51.956;5.876;2023-07-02T05:58:45;13.18;;;5.78;;
73113;SDS011;61301;51.956;5.876;2023-07-02T06:01:11;16.45;;;6.70;;
73113;SDS011;61301;51.956;5.876;2023-07-02T06:03:37;15.18;;;6.95;;
73113;SDS011;61301;51.956;5.876;2023-07-02T06:06:03;15.43;;;7.15;;
73113;SDS011;61301;51.956;5.876;2023-07-02T06:08:29;16.88;;;6.55;;
73113;SDS011;61301;51.956;5.876;2023-07-02T06:10:55;17.38;;;7.68;;
73113;SDS011;61301;51.956;5.876;2023-07-02T06:13:21;18.67;;;7.93;;
73113;SDS011;61301;51.956;5.876;2023-07-02T06:15:47;13.93;;;6.47;;
73113;SDS011;61301;51.956;5.876;2023-07-02T06:18:13;13.95;;;6.57;;
73113;SDS011;61301;51.956;5.876;2023-07-02T06:20:39;19.55;;;7.65;;
73113;SDS011;61301;51.956;5.876;2023-07-02T06:23:09;14.63;;;6.40;;
73113;SDS011;61301;51.956;5.876;2023-07-02T06:25:34;13.60;;;5.93;;
73113;SDS011;61301;51.956;5.876;2023-07-02T06:28:01;18.85;;;6.72;;
73113;SDS011;61301;51.956;5.876;2023-07-02T06:30:27;12.95;;;6.07;;
73113;SDS011;61301;51.956;5.876;2023-07-02T06:32:53;16.00;;;6.43;;
73113;SDS011;61301;51.956;5.876;2023-07-02T06:35:19;10.68;;;6.13;;
73113;SDS011;61301;51.956;5.876;2023-07-02T06:37:46;15.40;;;6.32;;
73113;SDS011;61301;51.956;5.876;2023-07-02T06:40:12;12.63;;;6.18;;
73113;SDS011;61301;51.956;5.876;2023-07-02T06:42:39;17.00;;;6.82;;
73113;SDS011;61301;51.956;5.876;2023-07-02T06:45:05;16.08;;;6.78;;
73113;SDS011;61301;51.956;5.876;2023-07-02T06:47:32;14.63;;;5.63;;
73113;SDS011;61301;51.956;5.876;2023-07-02T06:49:58;14.52;;;5.75;;
73113;SDS011;61301;51.956;5.876;2023-07-02T06:52:24;13.73;;;6.95;;
73113;SDS011;61301;51.956;5.876;2023-07-02T06:54:50;15.60;;;6.38;;
73113;SDS011;61301;51.956;5.876;2023-07-02T06:57:16;14.80;;;6.72;;
73113;SDS011;61301;51.956;5.876;2023-07-02T06:59:42;14.98;;;6.25;;
73113;SDS011;61301;51.956;5.876;2023-07-02T07:02:08;14.23;;;5.40;;
73113;SDS011;61301;51.956;5.876;2023-07-02T07:04:34;13.60;;;6.40;;
73113;SDS011;61301;51.956;5.876;2023-07-02T07:07:01;11.90;;;5.82;;
73113;SDS011;61301;51.956;5.876;2023-07-02T07:09:31;11.55;;;5.85;;
73113;SDS011;61301;51.956;5.876;2023-07-02T07:11:57;15.43;;;5.97;;
73113;SDS011;61301;51.956;5.876;2023-07-02T07:14:23;12.60;;;5.60;;
73113;SDS011;61301;51.956;5.876;2023-07-02T07:16:49;14.25;;;5.35;;
73113;SDS011;61301;51.956;5.876;2023-07-02T07:19:16;13.60;;;6.18;;
73113;SDS011;61301;51.956;5.876;2023-07-02T07:21:42;12.10;;;5.65;;
73113;SDS011;61301;51.956;5.876;2023-07-02T07:24:09;8.82;;;4.80;;
73113;SDS011;61301;51.956;5.876;2023-07-02T07:26:35;12.65;;;5.53;;
73113;SDS011;61301;51.956;5.876;2023-07-02T07:29:01;15.23;;;5.97;;
73113;SDS011;61301;51.956;5.876;2023-07-02T07:31:27;14.68;;;5.50;;
73113;SDS011;61301;51.956;5.876;2023-07-02T07:33:53;10.13;;;5.47;;
73113;SDS011;61301;51.956;5.876;2023-07-02T07:36:19;8.68;;;4.45;;
73113;SDS011;61301;51.956;5.876;2023-07-02T07:38:45;11.65;;;5.38;;
73113;SDS011;61301;51.956;5.876;2023-07-02T07:41:11;12.52;;;5.88;;
73113;SDS011;61301;51.956;5.876;2023-07-02T07:43:37;12.20;;;5.22;;
73113;SDS011;61301;51.956;5.876;2023-07-02T07:46:03;11.20;;;5.50;;
73113;SDS011;61301;51.956;5.876;2023-07-02T07:48:29;10.25;;;4.00;;
73113;SDS011;61301;51.956;5.876;2023-07-02T07:50:55;15.30;;;5.70;;
73113;SDS011;61301;51.956;5.876;2023-07-02T07:53:21;18.23;;;6.32;;
73113;SDS011;61301;51.956;5.876;2023-07-02T07:55:47;11.95;;;6.50;;
73113;SDS011;61301;51.956;5.876;2023-07-02T07:58:13;11.45;;;5.88;;
73113;SDS011;61301;51.956;5.876;2023-07-02T08:00:39;10.00;;;5.25;;
73113;SDS011;61301;51.956;5.876;2023-07-02T08:03:05;10.30;;;5.47;;
73113;SDS011;61301;51.956;5.876;2023-07-02T08:05:32;11.55;;;5.22;;
73113;SDS011;61301;51.956;5.876;2023-07-02T08:07:58;9.68;;;5.10;;
73113;SDS011;61301;51.956;5.876;2023-07-02T08:10:24;9.40;;;4.80;;
73113;SDS011;61301;51.956;5.876;2023-07-02T08:12:50;14.23;;;6.18;;
73113;SDS011;61301;51.956;5.876;2023-07-02T08:15:18;11.35;;;5.07;;
73113;SDS011;61301;51.956;5.876;2023-07-02T08:17:44;12.70;;;5.70;;
73113;SDS011;61301;51.956;5.876;2023-07-02T08:20:10;12.65;;;5.38;;
73113;SDS011;61301;51.956;5.876;2023-07-02T08:22:37;11.80;;;5.22;;
73113;SDS011;61301;51.956;5.876;2023-07-02T08:25:04;12.63;;;5.22;;
73113;SDS011;61301;51.956;5.876;2023-07-02T08:27:31;10.10;;;4.97;;
73113;SDS011;61301;51.956;5.876;2023-07-02T08:29:57;9.32;;;5.22;;
73113;SDS011;61301;51.956;5.876;2023-07-02T08:32:23;12.63;;;5.00;;
73113;SDS011;61301;51.956;5.876;2023-07-02T08:34:49;8.98;;;4.72;;
73113;SDS011;61301;51.956;5.876;2023-07-02T08:37:17;11.68;;;5.15;;
73113;SDS011;61301;51.956;5.876;2023-07-02T08:39:43;8.38;;;4.10;;
73113;SDS011;61301;51.956;5.876;2023-07-02T08:42:09;8.35;;;4.47;;
73113;SDS011;61301;51.956;5.876;2023-07-02T08:44:35;10.65;;;4.40;;
73113;SDS011;61301;51.956;5.876;2023-07-02T08:47:01;9.30;;;4.63;;
73113;SDS011;61301;51.956;5.876;2023-07-02T08:49:28;9.60;;;5.40;;
73113;SDS011;61301;51.956;5.876;2023-07-02T08:51:54;7.57;;;4.57;;
73113;SDS011;61301;51.956;5.876;2023-07-02T08:54:20;11.50;;;5.03;;
73113;SDS011;61301;51.956;5.876;2023-07-02T08:56:46;10.32;;;4.72;;
73113;SDS011;61301;51.956;5.876;2023-07-02T08:59:12;11.68;;;5.38;;
73113;SDS011;61301;51.956;5.876;2023-07-02T09:01:45;10.90;;;5.32;;
73113;SDS011;61301;51.956;5.876;2023-07-02T09:04:16;11.32;;;5.07;;
73113;SDS011;61301;51.956;5.876;2023-07-02T09:06:42;10.88;;;4.70;;
73113;SDS011;61301;51.956;5.876;2023-07-02T09:09:08;9.57;;;4.80;;
73113;SDS011;61301;51.956;5.876;2023-07-02T09:11:35;8.95;;;4.90;;
73113;SDS011;61301;51.956;5.876;2023-07-02T09:14:11;10.75;;;5.28;;
73113;SDS011;61301;51.956;5.876;2023-07-02T09:16:37;7.20;;;4.53;;
73113;SDS011;61301;51.956;5.876;2023-07-02T09:19:06;9.05;;;4.30;;
73113;SDS011;61301;51.956;5.876;2023-07-02T09:21:48;7.85;;;4.13;;
73113;SDS011;61301;51.956;5.876;2023-07-02T09:24:21;8.88;;;3.92;;
73113;SDS011;61301;51.956;5.876;2023-07-02T09:29:22;9.27;;;4.78;;
73113;SDS011;61301;51.956;5.876;2023-07-02T09:31:59;9.18;;;4.65;;
73113;SDS011;61301;51.956;5.876;2023-07-02T09:34:27;8.07;;;4.57;;
73113;SDS011;61301;51.956;5.876;2023-07-02T09:36:55;7.32;;;4.18;;
73113;SDS011;61301;51.956;5.876;2023-07-02T09:39:25;8.95;;;4.07;;
73113;SDS011;61301;51.956;5.876;2023-07-02T09:41:56;7.20;;;4.40;;
73113;SDS011;61301;51.956;5.876;2023-07-02T09:44:29;10.40;;;4.30;;
73113;SDS011;61301;51.956;5.876;2023-07-02T09:47:06;10.35;;;5.07;;
73113;SDS011;61301;51.956;5.876;2023-07-02T09:49:34;7.70;;;4.07;;
73113;SDS011;61301;51.956;5.876;2023-07-02T09:52:02;4.78;;;3.55;;
73113;SDS011;61301;51.956;5.876;2023-07-02T09:54:32;6.80;;;3.67;;
73113;SDS011;61301;51.956;5.876;2023-07-02T09:56:59;7.10;;;4.30;;
73113;SDS011;61301;51.956;5.876;2023-07-02T09:59:26;8.80;;;3.90;;
73113;SDS011;61301;51.956;5.876;2023-07-02T10:01:52;6.60;;;3.75;;
73113;SDS011;61301;51.956;5.876;2023-07-02T10:04:19;6.68;;;3.90;;
73113;SDS011;61301;51.956;5.876;2023-07-02T10:09:12;9.75;;;3.92;;
73113;SDS011;61301;51.956;5.876;2023-07-02T10:11:38;6.03;;;3.72;;
73113;SDS011;61301;51.956;5.876;2023-07-02T10:14:04;7.55;;;4.07;;
73113;SDS011;61301;51.956;5.876;2023-07-02T10:16:30;6.63;;;3.33;;
73113;SDS011;61301;51.956;5.876;2023-07-02T10:19:12;9.95;;;3.72;;
73113;SDS011;61301;51.956;5.876;2023-07-02T10:21:39;6.13;;;3.47;;
73113;SDS011;61301;51.956;5.876;2023-07-02T10:24:08;6.45;;;3.97;;
73113;SDS011;61301;51.956;5.876;2023-07-02T10:29:05;6.75;;;3.60;;
73113;SDS011;61301;51.956;5.876;2023-07-02T10:31:31;8.63;;;3.95;;
73113;SDS011;61301;51.956;5.876;2023-07-02T10:33:57;6.38;;;3.38;;
73113;SDS011;61301;51.956;5.876;2023-07-02T10:36:24;8.45;;;3.60;;
73113;SDS011;61301;51.956;5.876;2023-07-02T10:38:51;9.02;;;3.63;;
73113;SDS011;61301;51.956;5.876;2023-07-02T10:41:28;8.07;;;3.33;;
73113;SDS011;61301;51.956;5.876;2023-07-02T10:44:04;8.25;;;3.78;;
73113;SDS011;61301;51.956;5.876;2023-07-02T10:46:42;5.65;;;3.13;;
73113;SDS011;61301;51.956;5.876;2023-07-02T10:49:09;7.38;;;3.78;;
73113;SDS011;61301;51.956;5.876;2023-07-02T10:51:37;8.55;;;4.03;;
73113;SDS011;61301;51.956;5.876;2023-07-02T10:54:04;6.10;;;3.35;;
73113;SDS011;61301;51.956;5.876;2023-07-02T10:56:30;6.95;;;3.65;;
73113;SDS011;61301;51.956;5.876;2023-07-02T10:58:57;5.80;;;3.40;;
73113;SDS011;61301;51.956;5.876;2023-07-02T11:01:30;5.88;;;3.17;;
73113;SDS011;61301;51.956;5.876;2023-07-02T11:03:57;7.65;;;3.80;;
73113;SDS011;61301;51.956;5.876;2023-07-02T11:06:28;5.88;;;3.42;;
73113;SDS011;61301;51.956;5.876;2023-07-02T11:08:55;7.45;;;3.65;;
73113;SDS011;61301;51.956;5.876;2023-07-02T11:11:22;7.15;;;3.83;;
73113;SDS011;61301;51.956;5.876;2023-07-02T11:13:49;5.35;;;3.30;;
73113;SDS011;61301;51.956;5.876;2023-07-02T11:16:17;9.60;;;3.72;;
73113;SDS011;61301;51.956;5.876;2023-07-02T11:18:54;7.55;;;3.70;;
73113;SDS011;61301;51.956;5.876;2023-07-02T11:21:33;8.35;;;3.58;;
73113;SDS011;61301;51.956;5.876;2023-07-02T11:24:02;5.75;;;3.20;;
73113;SDS011;61301;51.956;5.876;2023-07-02T11:26:39;5.53;;;3.22;;
73113;SDS011;61301;51.956;5.876;2023-07-02T11:29:12;7.03;;;3.38;;
73113;SDS011;61301;51.956;5.876;2023-07-02T11:31:43;8.52;;;3.95;;
73113;SDS011;61301;51.956;5.876;2023-07-02T11:34:13;8.55;;;2.88;;
73113;SDS011;61301;51.956;5.876;2023-07-02T11:36:39;6.50;;;2.67;;
73113;SDS011;61301;51.956;5.876;2023-07-02T11:39:05;5.03;;;2.92;;
73113;SDS011;61301;51.956;5.876;2023-07-02T11:41:38;4.65;;;2.80;;
73113;SDS011;61301;51.956;5.876;2023-07-02T11:46:32;5.50;;;3.00;;
73113;SDS011;61301;51.956;5.876;2023-07-02T11:49:02;6.82;;;3.40;;
73113;SDS011;61301;51.956;5.876;2023-07-02T11:51:35;5.30;;;3.15;;
73113;SDS011;61301;51.956;5.876;2023-07-02T11:54:05;4.50;;;2.47;;
73113;SDS011;61301;51.956;5.876;2023-07-02T11:56:32;4.25;;;2.92;;
73113;SDS011;61301;51.956;5.876;2023-07-02T11:58:59;5.68;;;3.20;;
73113;SDS011;61301;51.956;5.876;2023-07-02T12:01:25;5.97;;;2.72;;
73113;SDS011;61301;51.956;5.876;2023-07-02T12:03:51;6.00;;;2.97;;
73113;SDS011;61301;51.956;5.876;2023-07-02T12:06:17;6.95;;;3.08;;
73113;SDS011;61301;51.956;5.876;2023-07-02T12:08:43;7.00;;;2.97;;
73113;SDS011;61301;51.956;5.876;2023-07-02T12:11:10;7.85;;;3.13;;
73113;SDS011;61301;51.956;5.876;2023-07-02T12:13:36;4.53;;;2.70;;
73113;SDS011;61301;51.956;5.876;2023-07-02T12:16:02;7.47;;;3.17;;
73113;SDS011;61301;51.956;5.876;2023-07-02T12:18:28;8.27;;;3.47;;
73113;SDS011;61301;51.956;5.876;2023-07-02T12:20:54;5.15;;;3.15;;
73113;SDS011;61301;51.956;5.876;2023-07-02T12:23:20;5.35;;;3.00;;
73113;SDS011;61301;51.956;5.876;2023-07-02T12:25:46;7.97;;;3.33;;
73113;SDS011;61301;51.956;5.876;2023-07-02T12:28:12;4.30;;;2.85;;
73113;SDS011;61301;51.956;5.876;2023-07-02T12:30:38;5.25;;;3.17;;
73113;SDS011;61301;51.956;5.876;2023-07-02T12:33:04;7.32;;;2.75;;
73113;SDS011;61301;51.956;5.876;2023-07-02T12:35:30;6.18;;;3.10;;
73113;SDS011;61301;51.956;5.876;2023-07-02T12:37:56;6.75;;;3.42;;
73113;SDS011;61301;51.956;5.876;2023-07-02T12:40:22;6.28;;;3.05;;
73113;SDS011;61301;51.956;5.876;2023-07-02T12:42:48;6.70;;;3.40;;
73113;SDS011;61301;51.956;5.876;2023-07-02T12:45:17;5.13;;;3.08;;
73113;SDS011;61301;51.956;5.876;2023-07-02T12:47:43;4.80;;;2.80;;
73113;SDS011;61301;51.956;5.876;2023-07-02T12:50:10;5.45;;;3.05;;
73113;SDS011;61301;51.956;5.876;2023-07-02T12:52:36;6.43;;;3.00;;
73113;SDS011;61301;51.956;5.876;2023-07-02T12:55:03;5.65;;;3.38;;
73113;SDS011;61301;51.956;5.876;2023-07-02T12:57:29;5.15;;;2.90;;
73113;SDS011;61301;51.956;5.876;2023-07-02T12:59:55;5.63;;;2.88;;
73113;SDS011;61301;51.956;5.876;2023-07-02T13:02:22;4.80;;;2.90;;
73113;SDS011;61301;51.956;5.876;2023-07-02T13:04:49;7.57;;;3.25;;
73113;SDS011;61301;51.956;5.876;2023-07-02T13:07:15;4.95;;;2.58;;
73113;SDS011;61301;51.956;5.876;2023-07-02T13:09:42;7.47;;;3.25;;
73113;SDS011;61301;51.956;5.876;2023-07-02T13:12:09;4.90;;;2.90;;
73113;SDS011;61301;51.956;5.876;2023-07-02T13:14:36;8.27;;;3.55;;
73113;SDS011;61301;51.956;5.876;2023-07-02T13:17:02;5.60;;;2.97;;
73113;SDS011;61301;51.956;5.876;2023-07-02T13:19:31;5.20;;;2.40;;
73113;SDS011;61301;51.956;5.876;2023-07-02T13:21:57;5.05;;;2.90;;
73113;SDS011;61301;51.956;5.876;2023-07-02T13:24:23;7.25;;;3.33;;
73113;SDS011;61301;51.956;5.876;2023-07-02T13:26:49;5.28;;;2.50;;
73113;SDS011;61301;51.956;5.876;2023-07-02T13:29:15;5.43;;;2.80;;
73113;SDS011;61301;51.956;5.876;2023-07-02T13:31:42;5.60;;;2.92;;
73113;SDS011;61301;51.956;5.876;2023-07-02T13:34:08;7.05;;;3.08;;
73113;SDS011;61301;51.956;5.876;2023-07-02T13:36:34;7.47;;;3.28;;
73113;SDS011;61301;51.956;5.876;2023-07-02T13:39:00;6.68;;;2.60;;
73113;SDS011;61301;51.956;5.876;2023-07-02T13:41:26;6.03;;;2.63;;
73113;SDS011;61301;51.956;5.876;2023-07-02T13:43:52;6.97;;;3.20;;
73113;SDS011;61301;51.956;5.876;2023-07-02T13:46:18;5.07;;;2.75;;
73113;SDS011;61301;51.956;5.876;2023-07-02T13:48:44;6.60;;;3.28;;
73113;SDS011;61301;51.956;5.876;2023-07-02T13:51:10;8.18;;;3.40;;
73113;SDS011;61301;51.956;5.876;2023-07-02T13:53:36;8.40;;;3.35;;
73113;SDS011;61301;51.956;5.876;2023-07-02T13:56:02;6.25;;;3.33;;
73113;SDS011;61301;51.956;5.876;2023-07-02T14:01:10;7.75;;;3.40;;
73113;SDS011;61301;51.956;5.876;2023-07-02T14:03:36;6.38;;;3.13;;
73113;SDS011;61301;51.956;5.876;2023-07-02T14:06:02;5.82;;;2.88;;
73113;SDS011;61301;51.956;5.876;2023-07-02T14:08:28;5.93;;;3.15;;
73113;SDS011;61301;51.956;5.876;2023-07-02T14:10:54;8.15;;;3.38;;
73113;SDS011;61301;51.956;5.876;2023-07-02T14:13:20;6.13;;;3.80;;
73113;SDS011;61301;51.956;5.876;2023-07-02T14:15:46;6.18;;;3.10;;
73113;SDS011;61301;51.956;5.876;2023-07-02T14:18:13;6.55;;;3.30;;
73113;SDS011;61301;51.956;5.876;2023-07-02T14:20:39;8.02;;;3.92;;
73113;SDS011;61301;51.956;5.876;2023-07-02T14:23:05;7.13;;;3.20;;
73113;SDS011;61301;51.956;5.876;2023-07-02T14:25:32;6.43;;;3.03;;
73113;SDS011;61301;51.956;5.876;2023-07-02T14:27:58;5.45;;;2.83;;
73113;SDS011;61301;51.956;5.876;2023-07-02T14:30:24;8.93;;;3.25;;
73113;SDS011;61301;51.956;5.876;2023-07-02T14:32:50;4.95;;;2.88;;
73113;SDS011;61301;51.956;5.876;2023-07-02T14:35:16;6.75;;;3.33;;
73113;SDS011;61301;51.956;5.876;2023-07-02T14:37:42;6.68;;;3.88;;
73113;SDS011;61301;51.956;5.876;2023-07-02T14:40:08;6.63;;;3.45;;
73113;SDS011;61301;51.956;5.876;2023-07-02T14:42:35;6.53;;;3.42;;
73113;SDS011;61301;51.956;5.876;2023-07-02T14:45:01;7.18;;;3.55;;
73113;SDS011;61301;51.956;5.876;2023-07-02T14:47:27;6.35;;;3.65;;
73113;SDS011;61301;51.956;5.876;2023-07-02T14:49:53;8.13;;;3.50;;
73113;SDS011;61301;51.956;5.876;2023-07-02T14:52:19;8.45;;;3.75;;
73113;SDS011;61301;51.956;5.876;2023-07-02T14:54:45;6.40;;;3.28;;
73113;SDS011;61301;51.956;5.876;2023-07-02T14:57:11;7.10;;;3.45;;
73113;SDS011;61301;51.956;5.876;2023-07-02T14:59:37;6.25;;;3.17;;